Terminal Aerodrome Forecast
Issued by NWS Lake Charles, LA

Home | Current Version | Previous Version | Text Only | Print | Product List | Glossary On
Versions: 1 2 3 4 5 6 7 8 9 10 11 12 13 14 15 16 17 18 19 20 21 22 23 24 25
000
FTUS44 KLCH 271721
TAFARA
TAF
KARA 271721Z 2718/2818 07012KT P6SM VCSH BKN080
     FM272000 11012KT P6SM VCTS BKN025CB
      TEMPO 2805/2809 VRB15G30KT 2SM TSRA BKN015CB
     FM280900 27012KT P6SM VCSH OVC015
     FM281400 36010KT P6SM OVC015=

USA.gov is the U.S. government's official web portal to all federal, state and local government web resources and services.